Time;durP1;ratioP1;P1;durP2;ratioP2;P2;SDS_P1;SDS_P2;PMS_P1;PMS_P2;Temp;Humidity;BMP_temperature;BMP_pressure;BME280_temperature;BME280_humidity;BME280_pressure;Samples;Min_cycle;Max_cycle;Signal;HPM_P1;HPM_P2
2022/08/07 00:01:05;;;;;;;7.15;3.83;;;14.50;99.90;;;;;;21061646;28;20036;-57
2022/08/07 00:11:08;;;;;;;5.63;4.80;;;14.50;99.90;;;;;;21052600;28;20032;-51
2022/08/07 00:21:10;;;;;;;6.38;5.50;;;14.40;99.90;;;;;;21062574;28;20551;-53
2022/08/07 00:31:12;;;;;;;7.38;6.68;;;14.40;99.90;;;;;;21061717;28;20105;-54
2022/08/07 00:41:15;;;;;;;13.32;11.25;;;14.30;99.90;;;;;;21061068;28;20392;-50
2022/08/07 00:51:17;;;;;;;10.77;9.68;;;14.30;99.90;;;;;;21060881;28;20044;-54
2022/08/07 01:01:21;;;;;;;12.13;10.45;;;14.10;99.90;;;;;;21057400;28;20032;-53
2022/08/07 01:11:23;;;;;;;9.90;8.90;;;14.10;99.90;;;;;;21058145;28;20101;-50
2022/08/07 01:21:26;;;;;;;9.70;8.70;;;14.10;99.90;;;;;;21057033;28;20031;-59
2022/08/07 01:31:31;;;;;;;10.60;9.45;;;14.00;99.90;;;;;;21013025;28;20049;-49
2022/08/07 01:41:38;;;;;;;11.55;10.20;;;13.90;99.90;;;;;;21023879;28;20073;-58
2022/08/07 01:51:44;;;;;;;9.85;7.95;;;13.90;99.90;;;;;;21039068;28;20062;-51
2022/08/07 02:01:55;;;;;;;11.45;10.23;;;13.90;99.90;;;;;;21046625;28;20110;-49
2022/08/07 02:12:15;;;;;;;9.00;8.15;;;14.00;99.90;;;;;;21073480;28;20039;-49
2022/08/07 02:22:22;;;;;;;6.57;5.95;;;14.00;99.90;;;;;;21119270;28;20065;-51
2022/08/07 02:32:26;;;;;;;4.82;3.85;;;14.00;99.90;;;;;;21134998;28;20100;-54
2022/08/07 02:42:31;;;;;;;4.75;4.35;;;13.90;99.90;;;;;;21134885;28;20073;-55
2022/08/07 02:52:40;;;;;;;7.45;6.68;;;13.90;99.90;;;;;;21117354;28;20043;-59
2022/08/07 03:02:47;;;;;;;8.35;6.70;;;14.00;99.90;;;;;;21054595;28;20066;-59
2022/08/07 03:12:52;;;;;;;3.45;3.00;;;13.90;99.90;;;;;;21033536;28;20028;-59
2022/08/07 03:22:57;;;;;;;3.53;2.83;;;13.90;99.90;;;;;;21032810;28;20439;-58
2022/08/07 03:33:01;;;;;;;1.70;1.60;;;13.90;99.90;;;;;;21024305;28;20567;-60
2022/08/07 03:43:07;;;;;;;2.90;2.58;;;13.70;99.90;;;;;;21034359;28;20566;-58
2022/08/07 03:53:10;;;;;;;4.05;2.60;;;13.60;99.90;;;;;;21134163;28;20035;-56
2022/08/07 04:03:16;;;;;;;5.40;3.25;;;13.50;99.90;;;;;;21109432;28;20081;-57
2022/08/07 04:13:20;;;;;;;3.90;3.47;;;13.60;99.90;;;;;;21062748;28;20051;-55
2022/08/07 04:23:24;;;;;;;3.80;3.30;;;13.60;99.90;;;;;;21045615;28;20093;-54
2022/08/07 04:33:27;;;;;;;4.68;4.28;;;13.70;99.90;;;;;;21061122;28;20497;-57
2022/08/07 04:43:36;;;;;;;4.00;3.60;;;13.70;99.90;;;;;;21110357;28;20476;-55
2022/08/07 04:53:49;;;;;;;4.55;3.10;;;13.80;99.90;;;;;;21126320;28;20404;-55
2022/08/07 05:04:21;;;;;;;2.90;2.60;;;13.90;99.90;;;;;;21054529;28;20032;-57
2022/08/07 05:14:27;;;;;;;3.85;2.58;;;13.90;99.90;;;;;;21041463;28;20040;-54
2022/08/07 05:24:32;;;;;;;3.05;2.75;;;14.00;99.90;;;;;;21057231;28;20550;-54
2022/08/07 05:34:36;;;;;;;2.47;2.28;;;14.00;99.90;;;;;;20987167;28;20406;-57
2022/08/07 05:44:39;;;;;;;2.30;2.05;;;13.80;99.90;;;;;;21025763;28;20459;-58
2022/08/07 05:54:42;;;;;;;2.38;1.70;;;13.60;99.90;;;;;;21037916;28;20062;-60
2022/08/07 06:04:51;;;;;;;2.50;2.05;;;13.60;99.90;;;;;;21004007;28;20441;-60
2022/08/07 06:14:57;;;;;;;2.63;2.40;;;13.50;99.90;;;;;;21022663;28;20032;-60
2022/08/07 06:25:00;;;;;;;2.53;2.20;;;13.50;99.90;;;;;;21052693;28;20089;-60
2022/08/07 06:35:03;;;;;;;2.08;1.88;;;13.50;99.90;;;;;;21036589;28;20048;-60
2022/08/07 06:45:11;;;;;;;2.65;2.28;;;13.60;99.90;;;;;;21034793;28;20085;-60
2022/08/07 06:55:22;;;;;;;2.00;1.70;;;13.70;99.90;;;;;;21035295;28;20044;-61
2022/08/07 07:05:25;;;;;;;2.30;2.10;;;14.00;99.90;;;;;;21024538;28;20455;-61
2022/08/07 07:15:32;;;;;;;1.73;1.63;;;14.60;99.90;;;;;;21048596;28;20036;-61
2022/08/07 07:25:38;;;;;;;1.33;1.23;;;15.40;99.90;;;;;;21050383;28;20432;-61
2022/08/07 07:35:45;;;;;;;1.33;1.23;;;16.00;99.90;;;;;;20987143;28;20040;-60
2022/08/07 07:45:49;;;;;;;1.20;1.10;;;16.70;99.90;;;;;;21001299;28;20086;-62
2022/08/07 07:55:55;;;;;;;1.27;1.17;;;17.20;99.90;;;;;;20988547;28;20561;-59
2022/08/07 08:05:59;;;;;;;1.83;0.80;;;17.60;99.90;;;;;;20988084;28;20106;-61
2022/08/07 08:16:04;;;;;;;1.20;0.93;;;18.00;99.90;;;;;;21039159;28;20082;-61
2022/08/07 08:36:31;;;;;;;2.88;1.08;;;19.90;99.90;;;;;;21060763;28;20409;-62
2022/08/07 08:46:47;;;;;;;1.00;0.90;;;20.50;99.90;;;;;;21060412;28;20044;-61
2022/08/07 08:56:53;;;;;;;0.98;0.90;;;20.80;99.90;;;;;;21046956;28;20426;-60
2022/08/07 09:07:14;;;;;;;1.13;1.00;;;20.90;99.90;;;;;;21044917;28;20077;-60
2022/08/07 09:17:40;;;;;;;1.40;1.30;;;20.90;99.90;;;;;;21057933;28;20036;-60
2022/08/07 09:27:45;;;;;;;1.27;1.15;;;21.00;99.90;;;;;;21056244;28;20040;-60
2022/08/07 09:37:53;;;;;;;1.85;1.20;;;20.90;99.90;;;;;;21050346;28;20036;-58
2022/08/07 09:48:29;;;;;;;1.17;1.07;;;20.70;99.90;;;;;;21055092;28;20089;-60
2022/08/07 09:58:44;;;;;;;0.75;0.75;;;20.80;99.90;;;;;;21054791;28;20039;-58
2022/08/07 10:09:08;;;;;;;0.85;0.85;;;20.90;99.90;;;;;;20986316;28;20036;-58
2022/08/07 10:19:19;;;;;;;0.73;0.70;;;21.40;99.90;;;;;;21115011;28;20028;-60
2022/08/07 10:29:50;;;;;;;1.02;0.70;;;21.60;99.90;;;;;;21136516;28;20330;-61
2022/08/07 10:40:10;;;;;;;1.02;0.98;;;22.10;99.90;;;;;;20985072;28;20040;-61
2022/08/07 10:50:23;;;;;;;0.90;0.77;;;22.50;99.90;;;;;;21051157;28;20065;-58
2022/08/07 11:00:33;;;;;;;0.60;0.60;;;22.90;99.90;;;;;;21072263;28;20101;-57
2022/08/07 11:10:46;;;;;;;0.77;0.65;;;22.90;99.90;;;;;;21133098;28;20035;-57
2022/08/07 11:21:11;;;;;;;0.52;0.50;;;22.90;98.50;;;;;;21132945;28;20035;-58
2022/08/07 11:31:27;;;;;;;0.60;0.60;;;22.90;97.70;;;;;;21091540;28;20048;-58
2022/08/07 11:41:38;;;;;;;1.13;0.90;;;23.40;97.10;;;;;;21048751;28;20028;-59
2022/08/07 11:51:42;;;;;;;1.90;1.00;;;23.50;99.90;;;;;;21058497;28;20036;-58
2022/08/07 12:02:10;;;;;;;1.67;0.90;;;23.80;98.60;;;;;;21072527;28;20036;-58
2022/08/07 12:12:51;;;;;;;2.67;1.10;;;25.40;96.90;;;;;;21146818;28;20385;-58
2022/08/07 12:23:16;;;;;;;1.20;1.10;;;26.00;97.70;;;;;;21145926;28;20404;-58
2022/08/07 12:33:22;;;;;;;1.27;1.17;;;26.40;95.80;;;;;;21075594;28;20051;-58
2022/08/07 12:43:33;;;;;;;1.48;1.30;;;25.90;95.70;;;;;;21062247;28;20044;-58
2022/08/07 12:53:43;;;;;;;1.50;1.40;;;25.70;96.80;;;;;;21059333;28;20044;-58
2022/08/07 13:04:25;;;;;;;1.90;1.70;;;26.50;96.20;;;;;;21006639;28;20028;-58
2022/08/07 13:14:46;;;;;;;3.13;2.35;;;;;;;;;;21058070;28;20032;-57
2022/08/07 13:25:13;;;;;;;2.13;1.92;;;27.10;96.10;;;;;;21056385;28;20032;-57
2022/08/07 13:35:48;;;;;;;1.90;1.80;;;26.90;97.30;;;;;;21055404;28;20052;-58
2022/08/07 13:45:59;;;;;;;2.30;2.10;;;26.90;96.40;;;;;;21106389;28;20089;-57
2022/08/07 13:56:02;;;;;;;3.55;1.60;;;25.90;98.00;;;;;;21055243;28;20074;-58
2022/08/07 14:06:07;;;;;;;1.52;1.42;;;26.40;97.00;;;;;;21074918;28;20475;-57
2022/08/07 14:16:15;;;;;;;1.90;1.80;;;26.40;95.60;;;;;;21137419;28;20542;-58
2022/08/07 14:26:25;;;;;;;1.65;1.55;;;26.20;93.80;;;;;;21103334;28;20089;-58
2022/08/07 14:36:30;;;;;;;2.28;1.80;;;25.90;96.50;;;;;;21051504;28;20044;-57
2022/08/07 14:46:35;;;;;;;1.50;1.40;;;26.60;95.10;;;;;;21050907;28;20040;-57
2022/08/07 14:56:40;;;;;;;1.95;1.80;;;27.20;93.20;;;;;;21039739;28;20044;-57
2022/08/07 15:06:46;;;;;;;2.55;1.45;;;26.90;94.00;;;;;;20998596;28;20032;-58
2022/08/07 15:17:00;;;;;;;1.67;1.58;;;26.20;94.20;;;;;;21049039;28;20053;-57
2022/08/07 15:27:25;;;;;;;2.17;1.90;;;27.50;94.00;;;;;;21062185;28;20031;-58
2022/08/07 15:37:33;;;;;;;2.10;2.00;;;28.60;92.00;;;;;;21024068;28;20048;-57
2022/08/07 15:47:38;;;;;;;2.05;1.77;;;27.50;91.40;;;;;;21064890;28;20104;-57
2022/08/07 15:57:51;;;;;;;2.42;2.22;;;25.30;95.80;;;;;;21047566;28;20066;-57
2022/08/07 16:08:06;;;;;;;3.20;2.35;;;24.30;97.90;;;;;;21075939;28;20035;-57
2022/08/07 16:18:27;;;;;;;3.67;3.30;;;23.50;99.90;;;;;;21145723;28;20381;-57
2022/08/07 16:28:49;;;;;;;2.90;2.70;;;22.60;99.90;;;;;;21144283;28;20040;-57
2022/08/07 16:39:26;;;;;;;2.70;2.50;;;22.00;99.90;;;;;;21143575;28;20043;-57
2022/08/07 16:50:06;;;;;;;3.28;2.97;;;21.40;99.90;;;;;;21143536;28;20039;-57
2022/08/07 17:00:10;;;;;;;3.45;3.15;;;20.90;99.90;;;;;;21102470;28;20040;-57
2022/08/07 17:10:33;;;;;;;3.00;2.80;;;20.60;99.90;;;;;;21058020;28;20439;-56
2022/08/07 17:20:40;;;;;;;3.40;3.10;;;20.30;99.90;;;;;;21058158;28;20036;-58
2022/08/07 17:30:58;;;;;;;2.78;2.58;;;20.20;99.90;;;;;;21041100;28;20554;-59
2022/08/07 17:41:06;;;;;;;5.57;3.35;;;19.90;99.90;;;;;;20972834;28;20044;-59
2022/08/07 17:51:21;;;;;;;2.80;2.60;;;19.50;99.90;;;;;;20971207;28;20130;-59
2022/08/07 18:01:39;;;;;;;4.28;2.80;;;19.20;99.90;;;;;;20965960;28;20126;-59
2022/08/07 18:11:54;;;;;;;2.40;2.20;;;18.80;99.90;;;;;;20999027;28;20040;-59
2022/08/07 18:22:01;;;;;;;2.30;1.95;;;18.40;99.90;;;;;;21052185;28;20044;-59
2022/08/07 18:32:07;;;;;;;3.30;2.00;;;17.90;99.90;;;;;;21061545;28;20043;-59
2022/08/07 18:42:15;;;;;;;3.17;2.50;;;17.40;99.90;;;;;;21135436;28;20065;-58
2022/08/07 18:52:20;;;;;;;4.10;3.00;;;17.20;99.90;;;;;;21134161;28;20040;-58
2022/08/07 19:03:01;;;;;;;6.47;3.53;;;17.10;99.90;;;;;;21075214;28;20085;-61
2022/08/07 19:13:36;;;;;;;3.15;2.55;;;16.90;99.90;;;;;;20711545;28;20037;-58
2022/08/07 19:23:47;;;;;;;2.65;2.45;;;17.10;99.90;;;;;;20710909;28;20050;-59
2022/08/07 19:33:50;;;;;;;2.83;2.47;;;17.20;99.90;;;;;;20665785;28;20101;-58
2022/08/07 19:43:57;;;;;;;2.80;2.17;;;17.20;99.90;;;;;;20784367;28;20080;-59
2022/08/07 19:54:02;;;;;;;1.98;1.77;;;16.90;99.90;;;;;;20963568;28;20551;-58
2022/08/07 20:04:06;;;;;;;2.65;1.60;;;16.70;99.90;;;;;;20954508;28;20079;-58
2022/08/07 20:14:13;;;;;;;2.22;1.92;;;16.60;99.90;;;;;;20929055;28;20394;-58
2022/08/07 20:24:23;;;;;;;1.90;1.70;;;16.50;99.90;;;;;;20942913;28;20479;-59
2022/08/07 20:34:28;;;;;;;5.43;2.45;;;16.20;99.90;;;;;;21019079;28;20101;-58
2022/08/07 20:44:38;;;;;;;1.77;1.67;;;15.80;99.90;;;;;;21060422;28;20089;-57
2022/08/07 20:54:41;;;;;;;2.00;1.80;;;15.40;99.90;;;;;;21059767;28;20040;-60
2022/08/07 21:04:47;;;;;;;2.78;2.30;;;15.10;99.90;;;;;;21029056;28;20039;-58
2022/08/07 21:14:51;;;;;;;3.25;2.90;;;14.90;99.90;;;;;;21058211;28;20028;-58
2022/08/07 21:25:25;;;;;;;4.20;3.20;;;14.90;99.90;;;;;;21056377;28;20116;-58
2022/08/07 21:35:41;;;;;;;2.88;2.58;;;14.80;99.90;;;;;;20987045;28;20044;-61
2022/08/07 21:46:09;;;;;;;2.47;2.00;;;14.80;99.90;;;;;;21041824;28;20093;-57
2022/08/07 21:56:18;;;;;;;2.58;2.38;;;14.90;99.90;;;;;;21054684;28;20073;-57
2022/08/07 22:06:42;;;;;;;6.97;5.25;;;15.20;99.90;;;;;;21007266;28;20086;-61
2022/08/07 22:16:57;;;;;;;3.08;1.98;;;15.40;99.90;;;;;;21045017;28;20135;-57
2022/08/07 22:27:17;;;;;;;2.20;2.00;;;15.80;99.90;;;;;;21052328;28;20443;-56
2022/08/07 22:37:40;;;;;;;2.15;1.95;;;15.90;99.90;;;;;;21051256;28;20419;-58
2022/08/07 22:48:05;;;;;;;1.70;1.60;;;15.80;99.90;;;;;;21051132;28;20032;-58
2022/08/07 22:58:23;;;;;;;2.33;1.50;;;15.70;99.90;;;;;;21028166;28;20040;-61
2022/08/07 23:08:55;;;;;;;1.98;1.45;;;15.60;99.90;;;;;;21050172;28;20040;-58
2022/08/07 23:30:04;;;;;;;1.17;1.02;;;15.20;99.90;;;;;;21053743;28;20031;-60
2022/08/07 23:40:34;;;;;;;1.67;1.30;;;15.00;99.90;;;;;;21131931;28;20085;-56
2022/08/07 23:50:47;;;;;;;1.60;1.48;;;14.90;99.90;;;;;;21147767;28;20035;-56
